createdAt,value
2022-11-05T00:01:09.369Z,97918.09
2022-11-05T00:03:55.290Z,97918.09
2022-11-05T00:06:41.334Z,97927.50
2022-11-05T00:09:29.351Z,97929.22
2022-11-05T00:12:16.419Z,97923.41
2022-11-05T00:15:03.703Z,97928.66
2022-11-05T00:17:32.142Z,97934.97
2022-11-05T00:20:00.891Z,97928.06
2022-11-05T00:22:47.012Z,97936.47
2022-11-05T00:25:16.755Z,97939.88
2022-11-05T00:27:50.607Z,97946.00
2022-11-05T00:30:24.123Z,97944.34
2022-11-05T00:32:53.901Z,97940.84
2022-11-05T00:35:23.584Z,97946.81
2022-11-05T00:37:54.562Z,97956.06
2022-11-05T00:40:22.838Z,97956.88
2022-11-05T00:43:08.869Z,97957.66
2022-11-05T00:45:38.920Z,97959.53
2022-11-05T00:48:25.164Z,97963.97
2022-11-05T00:50:53.680Z,97963.09
2022-11-05T00:53:22.120Z,97967.41
2022-11-05T00:55:50.592Z,97968.25
2022-11-05T00:58:22.562Z,97962.50
2022-11-05T01:00:55.034Z,97975.38
2022-11-05T01:03:25.775Z,97985.81
2022-11-05T01:05:57.279Z,97981.69
2022-11-05T01:08:28.378Z,97976.53
2022-11-05T01:10:59.322Z,97988.63
2022-11-05T01:13:30.554Z,97992.97
2022-11-05T01:16:09.881Z,97991.28
2022-11-05T01:18:39.543Z,97992.28
2022-11-05T01:21:13.265Z,97994.16
2022-11-05T01:23:41.807Z,97990.00
2022-11-05T01:26:10.345Z,97998.56
2022-11-05T01:28:38.658Z,97999.31
2022-11-05T01:31:08.559Z,98000.38
2022-11-05T01:33:36.901Z,97998.56
2022-11-05T01:36:06.918Z,98009.00
2022-11-05T01:38:35.217Z,98003.09
2022-11-05T01:41:03.561Z,98010.75
2022-11-05T01:43:48.943Z,98010.81
2022-11-05T01:46:19.517Z,98010.81
2022-11-05T01:48:50.358Z,98009.00
2022-11-05T01:51:23.004Z,98013.34
2022-11-05T01:53:54.751Z,98017.03
2022-11-05T01:56:27.949Z,98012.78
2022-11-05T01:59:01.780Z,98019.44
2022-11-05T02:01:31.921Z,98012.66
2022-11-05T02:04:06.194Z,98021.09
2022-11-05T02:06:38.081Z,98024.59
2022-11-05T02:09:10.321Z,98026.25
2022-11-05T02:11:38.674Z,98023.09
2022-11-05T02:14:07.152Z,98022.94
2022-11-05T02:16:44.162Z,98027.94
2022-11-05T02:19:47.475Z,98026.94
2022-11-05T02:23:13.003Z,98021.09
2022-11-05T02:26:22.390Z,98029.75
2022-11-05T02:29:31.191Z,98028.09
2022-11-05T02:32:10.120Z,98033.00
2022-11-05T02:34:51.234Z,98027.94
2022-11-05T02:37:32.840Z,98032.19
2022-11-05T02:40:09.864Z,98026.13
2022-11-05T02:42:46.388Z,98032.19
2022-11-05T02:45:30.950Z,98032.91
2022-11-05T02:48:11.203Z,98037.31
2022-11-05T02:50:49.773Z,98042.25
2022-11-05T02:53:28.235Z,98032.09
2022-11-05T02:56:02.559Z,98042.38
2022-11-05T02:58:31.500Z,98038.88
2022-11-05T03:01:00.364Z,98041.41
2022-11-05T03:03:35.732Z,98030.53
2022-11-05T03:06:32.816Z,98038.44
2022-11-05T03:09:19.544Z,98038.38
2022-11-05T03:11:59.446Z,98035.03
2022-11-05T03:14:41.728Z,98041.09
2022-11-05T03:17:19.552Z,98042.75
2022-11-05T03:19:55.962Z,98052.22
2022-11-05T03:22:28.597Z,98059.88
2022-11-05T03:25:03.537Z,98058.97
2022-11-05T03:27:33.913Z,98059.72
2022-11-05T03:30:06.472Z,98061.16
2022-11-05T03:32:39.821Z,98057.69
2022-11-05T03:35:13.988Z,98064.50
2022-11-05T03:37:46.634Z,98064.50
2022-11-05T03:40:17.861Z,98060.34
2022-11-05T03:42:52.920Z,98074.88
2022-11-05T03:45:26.655Z,98073.13
2022-11-05T03:47:59.623Z,98077.44
2022-11-05T03:50:40.944Z,98075.56
2022-11-05T03:53:16.133Z,98083.97
2022-11-05T03:55:52.495Z,98086.59
2022-11-05T03:58:23.238Z,98085.91
2022-11-05T04:00:52.945Z,98093.63
2022-11-05T04:03:21.247Z,98102.88
2022-11-05T04:06:05.523Z,98103.72
2022-11-05T04:08:51.551Z,98097.53
2022-11-05T04:11:37.376Z,98100.94
2022-11-05T04:14:05.668Z,98100.25
2022-11-05T04:16:51.340Z,98105.66
2022-11-05T04:19:40.419Z,98110.81
2022-11-05T04:22:27.849Z,98119.38
2022-11-05T04:24:56.119Z,98115.97
2022-11-05T04:27:24.366Z,98120.41
2022-11-05T04:30:10.438Z,98117.03
2022-11-05T04:32:38.662Z,98122.25
2022-11-05T04:35:07.423Z,98132.69
2022-11-05T04:37:37.143Z,98140.31
2022-11-05T04:40:06.533Z,98134.50
2022-11-05T04:42:34.876Z,98131.16
2022-11-05T04:45:03.083Z,98126.00
2022-11-05T04:47:31.475Z,98141.19
2022-11-05T04:49:59.869Z,98139.72
2022-11-05T04:52:28.053Z,98148.41
2022-11-05T04:54:57.713Z,98141.59
2022-11-05T04:57:26.040Z,98141.53
2022-11-05T04:59:55.015Z,98146.53
2022-11-05T05:02:23.469Z,98145.09
2022-11-05T05:04:51.815Z,98149.25
2022-11-05T05:07:20.208Z,98155.25
2022-11-05T05:09:48.464Z,98158.50
2022-11-05T05:12:18.188Z,98157.88
2022-11-05T05:14:49.151Z,98159.59
2022-11-05T05:17:18.148Z,98159.59
2022-11-05T05:20:04.555Z,98162.03
2022-11-05T05:22:32.902Z,98170.69
2022-11-05T05:25:01.236Z,98177.63
2022-11-05T05:27:31.432Z,98173.16
2022-11-05T05:30:00.756Z,98173.38
2022-11-05T05:32:29.259Z,98176.88
2022-11-05T05:34:57.665Z,98186.94
2022-11-05T05:37:26.166Z,98179.00
2022-11-05T05:39:54.572Z,98179.00
2022-11-05T05:42:23.003Z,98179.97
2022-11-05T05:44:52.659Z,98192.09
2022-11-05T05:47:21.016Z,98191.41
2022-11-05T05:49:49.312Z,98197.38
2022-11-05T05:52:17.780Z,98194.59
2022-11-05T05:54:46.074Z,98197.72
2022-11-05T05:57:14.295Z,98203.22
2022-11-05T05:59:42.648Z,98200.03
2022-11-05T06:02:12.561Z,98204.25
2022-11-05T06:04:40.912Z,98205.31
2022-11-05T06:07:09.522Z,98210.31
2022-11-05T06:09:37.826Z,98227.28
2022-11-05T06:12:07.043Z,98219.72
2022-11-05T06:14:35.493Z,98223.09
2022-11-05T06:17:03.782Z,98230.75
2022-11-05T06:19:33.560Z,98229.09
2022-11-05T06:22:02.186Z,98231.88
2022-11-05T06:24:30.741Z,98234.22
2022-11-05T06:26:59.083Z,98232.56
2022-11-05T06:29:27.308Z,98232.69
2022-11-05T06:31:55.612Z,98241.34
2022-11-05T06:34:23.857Z,98244.03
2022-11-05T06:36:53.491Z,98253.41
2022-11-05T06:39:21.742Z,98255.94
2022-11-05T06:42:16.576Z,98259.25
2022-11-05T06:44:38.397Z,98258.50
2022-11-05T06:47:06.764Z,98262.06
2022-11-05T06:49:35.046Z,98273.13
2022-11-05T06:52:04.797Z,98271.59
2022-11-05T06:54:33.015Z,98276.66
2022-11-05T06:57:01.463Z,98278.28
2022-11-05T06:59:29.722Z,98284.28
2022-11-05T07:01:58.135Z,98286.00
2022-11-05T07:04:26.479Z,98296.47
2022-11-05T07:06:54.765Z,98296.53
2022-11-05T07:09:25.019Z,98299.88
2022-11-05T07:11:53.309Z,98308.28
2022-11-05T07:14:21.774Z,98310.03
2022-11-05T07:16:50.159Z,98315.34
2022-11-05T07:19:18.445Z,98313.38
2022-11-05T07:21:48.644Z,98326.13
2022-11-05T07:24:16.896Z,98326.16
2022-11-05T07:26:46.530Z,98330.47
2022-11-05T07:29:14.918Z,98343.56
2022-11-05T07:31:43.184Z,98341.19
2022-11-05T07:34:11.921Z,98340.16
2022-11-05T07:36:40.629Z,98345.91
2022-11-05T07:39:09.109Z,98346.75
2022-11-05T07:41:37.635Z,98347.66
2022-11-05T07:44:07.711Z,98350.13
2022-11-05T07:46:36.061Z,98353.25
2022-11-05T07:49:04.965Z,98357.75
2022-11-05T07:51:33.235Z,98364.72
2022-11-05T07:54:01.642Z,98370.56
2022-11-05T07:56:29.892Z,98370.56
2022-11-05T07:58:58.262Z,98382.53
2022-11-05T08:01:28.093Z,98383.59
2022-11-05T08:03:56.618Z,98389.66
2022-11-05T08:06:25.039Z,98381.94
2022-11-05T08:08:53.291Z,98388.84
2022-11-05T08:11:21.800Z,98381.94
2022-11-05T08:13:49.994Z,98394.75
2022-11-05T08:16:18.319Z,98394.06
2022-11-05T08:18:48.702Z,98394.94
2022-11-05T08:21:17.236Z,98398.50
2022-11-05T08:23:45.607Z,98399.38
2022-11-05T08:26:13.899Z,98394.44
2022-11-05T08:28:42.359Z,98415.25
2022-11-05T08:31:10.633Z,98410.34
2022-11-05T08:33:39.181Z,98412.22
2022-11-05T08:36:09.266Z,98411.56
2022-11-05T08:38:37.528Z,98423.13
2022-11-05T08:41:06.194Z,98430.13
2022-11-05T08:43:34.525Z,98415.66
2022-11-05T08:46:03.463Z,98428.69
2022-11-05T08:48:31.761Z,98428.56
2022-11-05T08:51:02.603Z,98425.09
2022-11-05T08:53:32.260Z,98426.06
2022-11-05T08:56:00.875Z,98436.41
2022-11-05T08:58:29.306Z,98433.97
2022-11-05T09:01:03.392Z,98437.06
2022-11-05T09:03:33.135Z,98449.81
2022-11-05T09:06:01.470Z,98446.38
2022-11-05T09:08:31.323Z,98452.31
2022-11-05T09:10:59.755Z,98449.13
2022-11-05T09:13:28.197Z,98447.25
2022-11-05T09:15:59.045Z,98448.31
2022-11-05T09:18:27.478Z,98444.97
2022-11-05T09:20:55.734Z,98454.38
2022-11-05T09:23:24.061Z,98462.06
2022-11-05T09:25:53.718Z,98466.50
2022-11-05T09:28:24.035Z,98461.56
2022-11-05T09:30:53.906Z,98468.25
2022-11-05T09:33:25.646Z,98469.97
2022-11-05T09:35:54.419Z,98468.94
2022-11-05T09:38:22.946Z,98468.03
2022-11-05T09:40:59.184Z,98472.03
2022-11-05T09:43:35.406Z,98478.09
2022-11-05T09:46:10.054Z,98463.50
2022-11-05T09:48:40.508Z,98469.47
2022-11-05T09:51:11.468Z,98472.75
2022-11-05T09:53:41.952Z,98471.06
2022-11-05T09:56:22.803Z,98477.84
2022-11-05T09:58:57.640Z,98474.50
2022-11-05T10:01:31.243Z,98477.72
2022-11-05T10:04:06.533Z,98481.78
2022-11-05T10:06:35.717Z,98492.06
2022-11-05T10:09:12.358Z,98494.59
2022-11-05T10:11:48.084Z,98501.41
2022-11-05T10:14:24.042Z,98496.25
2022-11-05T10:16:57.532Z,98501.28
2022-11-05T10:19:31.755Z,98509.03
2022-11-05T10:22:11.895Z,98511.47
2022-11-05T10:24:46.310Z,98519.22
2022-11-05T10:27:20.896Z,98515.59
2022-11-05T10:29:50.595Z,98519.03
2022-11-05T10:32:28.283Z,98520.84
2022-11-05T10:35:00.302Z,98521.47
2022-11-05T10:37:30.158Z,98533.34
2022-11-05T10:39:59.092Z,98527.38
2022-11-05T10:42:54.365Z,98526.53
2022-11-05T10:45:35.543Z,98523.06
2022-11-05T10:48:24.630Z,98535.06
2022-11-05T10:50:53.062Z,98531.69
2022-11-05T10:53:25.284Z,98526.59
2022-11-05T10:55:54.647Z,98528.28
2022-11-05T10:58:30.062Z,98524.88
2022-11-05T11:01:06.724Z,98532.75
2022-11-05T11:03:45.838Z,98538.59
2022-11-05T11:06:24.185Z,98529.75
2022-11-05T11:08:55.125Z,98534.78
2022-11-05T11:11:30.296Z,98534.78
2022-11-05T11:14:07.345Z,98537.97
2022-11-05T11:16:39.219Z,98536.22
2022-11-05T11:19:28.748Z,98537.78
2022-11-05T11:22:23.067Z,98540.16
2022-11-05T11:24:54.911Z,98542.69
2022-11-05T11:27:27.672Z,98541.81
2022-11-05T11:30:02.734Z,98543.44
2022-11-05T11:32:37.827Z,98540.88
2022-11-05T11:35:09.032Z,98543.59
2022-11-05T11:37:42.076Z,98538.19
2022-11-05T11:40:17.377Z,98541.22
2022-11-05T11:42:48.955Z,98534.91
2022-11-05T11:45:24.502Z,98538.75
2022-11-05T11:47:53.144Z,98536.75
2022-11-05T11:50:38.744Z,98539.34
2022-11-05T11:53:37.391Z,98538.44
2022-11-05T11:56:16.538Z,98541.00
2022-11-05T11:58:48.935Z,98552.09
2022-11-05T12:02:23.022Z,98544.38
2022-11-05T12:05:16.585Z,98547.78
2022-11-05T12:07:52.961Z,98544.53
2022-11-05T12:10:48.949Z,98541.91
2022-11-05T12:14:04.259Z,98536.75
2022-11-05T12:17:15.662Z,98537.47
2022-11-05T12:20:23.373Z,98538.19
2022-11-05T12:23:30.308Z,98529.53
2022-11-05T12:26:10.994Z,98527.59
2022-11-05T12:29:19.512Z,98523.97
2022-11-05T12:32:03.598Z,98523.56
2022-11-05T12:34:57.898Z,98514.16
2022-11-05T12:37:35.435Z,98515.84
2022-11-05T12:40:34.641Z,98524.47
2022-11-05T12:43:15.911Z,98523.44
2022-11-05T12:45:54.895Z,98524.44
2022-11-05T12:48:52.860Z,98525.41
2022-11-05T12:51:37.611Z,98529.84
2022-11-05T12:54:24.619Z,98530.56
2022-11-05T12:56:58.615Z,98528.25
2022-11-05T12:59:34.997Z,98536.63
2022-11-05T13:02:12.071Z,98532.06
2022-11-05T13:04:47.568Z,98530.53
2022-11-05T13:07:23.722Z,98533.75
2022-11-05T13:09:56.666Z,98529.84
2022-11-05T13:12:28.972Z,98537.16
2022-11-05T13:15:01.859Z,98540.50
2022-11-05T13:17:36.379Z,98541.41
2022-11-05T13:20:17.297Z,98540.50
2022-11-05T13:22:53.179Z,98532.63
2022-11-05T13:25:25.515Z,98535.09
2022-11-05T13:28:00.814Z,98538.50
2022-11-05T13:30:37.335Z,98535.78
2022-11-05T13:33:12.787Z,98541.44
2022-11-05T13:35:45.719Z,98541.44
2022-11-05T13:38:40.720Z,98542.13
2022-11-05T13:41:25.528Z,98542.13
2022-11-05T13:44:11.434Z,98538.56
2022-11-05T13:47:10.304Z,98547.69
2022-11-05T13:50:00.248Z,98536.97
2022-11-05T13:52:59.671Z,98547.06
2022-11-05T13:55:56.360Z,98546.25
2022-11-05T13:59:12.957Z,98548.13
2022-11-05T14:01:49.576Z,98551.16
2022-11-05T14:04:29.814Z,98551.25
2022-11-05T14:07:09.814Z,98558.06
2022-11-05T14:09:39.654Z,98545.31
2022-11-05T14:12:24.188Z,98555.91
2022-11-05T14:15:00.432Z,98553.25
2022-11-05T14:17:34.698Z,98555.22
2022-11-05T14:20:40.971Z,98556.16
2022-11-05T14:23:51.881Z,98555.13
2022-11-05T14:26:25.049Z,98549.34
2022-11-05T14:29:40.514Z,98548.34
2022-11-05T14:32:28.322Z,98550.88
2022-11-05T14:35:04.874Z,98553.34
2022-11-05T14:37:37.538Z,98559.44
2022-11-05T14:40:34.685Z,98566.34
2022-11-05T14:43:06.735Z,98564.69
2022-11-05T14:45:40.034Z,98566.34
2022-11-05T14:48:34.886Z,98577.41
2022-11-05T14:51:04.138Z,98579.25
2022-11-05T14:53:36.126Z,98580.06
2022-11-05T14:56:08.454Z,98578.75
2022-11-05T14:58:38.502Z,98583.19
2022-11-05T15:01:10.472Z,98588.38
2022-11-05T15:04:06.044Z,98583.06
2022-11-05T15:06:36.696Z,98590.78
2022-11-05T15:09:25.234Z,98591.13
2022-11-05T15:12:12.619Z,98587.75
2022-11-05T15:14:55.324Z,98585.97
2022-11-05T15:17:30.122Z,98585.31
2022-11-05T15:20:18.782Z,98581.97
2022-11-05T15:22:51.378Z,98588.00
2022-11-05T15:25:23.875Z,98594.88
2022-11-05T15:28:05.260Z,98595.75
2022-11-05T15:30:33.777Z,98593.03
2022-11-05T15:33:20.322Z,98593.94
2022-11-05T15:35:48.919Z,98593.16
2022-11-05T15:38:30.213Z,98600.84
2022-11-05T15:41:01.569Z,98595.91
2022-11-05T15:43:30.440Z,98593.31
2022-11-05T15:46:08.757Z,98586.34
2022-11-05T15:48:38.767Z,98594.78
2022-11-05T15:51:07.414Z,98589.56
2022-11-05T15:54:23.978Z,98594.88
2022-11-05T15:56:51.323Z,98590.66
2022-11-05T15:59:22.389Z,98603.63
2022-11-05T16:01:56.235Z,98591.81
2022-11-05T16:04:30.493Z,98593.69
2022-11-05T16:07:01.555Z,98592.03
2022-11-05T16:09:33.192Z,98594.41
2022-11-05T16:12:21.172Z,98605.72
2022-11-05T16:14:59.223Z,98606.66
2022-11-05T16:17:32.957Z,98605.81
2022-11-05T16:20:02.792Z,98608.59
2022-11-05T16:22:46.755Z,98612.13
2022-11-05T16:25:47.937Z,98616.31
2022-11-05T16:28:26.008Z,98607.59
2022-11-05T16:30:57.085Z,98622.09
2022-11-05T16:33:26.625Z,98616.22
2022-11-05T16:35:56.534Z,98620.75
2022-11-05T16:38:25.698Z,98629.44
2022-11-05T16:40:54.170Z,98638.78
2022-11-05T16:43:25.524Z,98636.19
2022-11-05T16:45:56.898Z,98633.63
2022-11-05T16:48:26.480Z,98638.78
2022-11-05T16:50:56.224Z,98639.84
2022-11-05T16:53:24.568Z,98632.44
2022-11-05T16:55:52.995Z,98640.16
2022-11-05T16:58:24.154Z,98635.91
2022-11-05T17:00:58.548Z,98641.81
2022-11-05T17:03:26.915Z,98642.81
2022-11-05T17:05:56.967Z,98637.69
2022-11-05T17:08:25.305Z,98639.41
2022-11-05T17:10:53.664Z,98645.56
2022-11-05T17:13:21.987Z,98647.47
2022-11-05T17:15:51.731Z,98644.19
2022-11-05T17:18:20.874Z,98640.97
2022-11-05T17:20:51.376Z,98650.53
2022-11-05T17:23:23.890Z,98648.97
2022-11-05T17:25:54.961Z,98662.88
2022-11-05T17:28:23.809Z,98660.41
2022-11-05T17:30:53.361Z,98663.06
2022-11-05T17:33:23.573Z,98664.69
2022-11-05T17:35:52.311Z,98667.19
2022-11-05T17:38:22.811Z,98657.84
2022-11-05T17:40:51.858Z,98661.31
2022-11-05T17:43:21.049Z,98661.41
2022-11-05T17:45:52.949Z,98664.09
2022-11-05T17:48:22.156Z,98663.34
2022-11-05T17:50:51.816Z,98665.00
2022-11-05T17:53:21.744Z,98662.44
2022-11-05T17:55:50.236Z,98669.94
2022-11-05T17:58:18.871Z,98672.91
2022-11-05T18:00:48.636Z,98678.13
2022-11-05T18:03:17.193Z,98688.63
2022-11-05T18:05:45.768Z,98693.09
2022-11-05T18:08:14.139Z,98694.03
2022-11-05T18:10:43.971Z,98692.47
2022-11-05T18:13:13.072Z,98694.31
2022-11-05T18:15:41.960Z,98700.47
2022-11-05T18:18:10.575Z,98696.16
2022-11-05T18:20:39.598Z,98703.03
2022-11-05T18:23:07.953Z,98711.84
2022-11-05T18:25:36.546Z,98709.28
2022-11-05T18:28:06.309Z,98712.75
2022-11-05T18:30:35.068Z,98710.31
2022-11-05T18:33:03.349Z,98704.38
2022-11-05T18:35:31.865Z,98706.06
2022-11-05T18:38:00.252Z,98711.41
2022-11-05T18:40:28.852Z,98711.63
2022-11-05T18:42:57.172Z,98715.94
2022-11-05T18:45:29.692Z,98707.50
2022-11-05T18:47:58.919Z,98704.97
2022-11-05T18:50:27.411Z,98710.22
2022-11-05T18:52:56.192Z,98705.94
2022-11-05T18:55:25.240Z,98704.47
2022-11-05T18:57:53.721Z,98704.81
2022-11-05T19:00:22.651Z,98701.72
2022-11-05T19:02:52.796Z,98696.81
2022-11-05T19:05:28.999Z,98698.78
2022-11-05T19:07:58.775Z,98703.28
2022-11-05T19:10:27.900Z,98706.50
2022-11-05T19:12:56.522Z,98697.88
2022-11-05T19:15:25.428Z,98698.56
2022-11-05T19:17:55.215Z,98693.16
2022-11-05T19:20:24.180Z,98697.72
2022-11-05T19:22:52.651Z,98693.44
2022-11-05T19:25:21.061Z,98700.38
2022-11-05T19:27:49.467Z,98695.25
2022-11-05T19:30:17.960Z,98692.56
2022-11-05T19:32:46.353Z,98696.13
2022-11-05T19:35:16.360Z,98688.44
2022-11-05T19:37:45.017Z,98690.94
2022-11-05T19:40:13.836Z,98691.84
2022-11-05T19:42:42.256Z,98691.00
2022-11-05T19:45:38.187Z,98691.00
2022-11-05T19:48:00.021Z,98698.69
2022-11-05T19:50:29.752Z,98695.31
2022-11-05T19:52:58.055Z,98690.28
2022-11-05T19:55:26.634Z,98698.94
2022-11-05T19:57:55.297Z,98703.34
2022-11-05T20:00:23.705Z,98687.94
2022-11-05T20:02:52.123Z,98686.13
2022-11-05T20:05:20.545Z,98697.41
2022-11-05T20:07:53.010Z,98697.50
2022-11-05T20:10:22.118Z,98702.84
2022-11-05T20:12:50.782Z,98717.34
2022-11-05T20:15:19.701Z,98710.63
2022-11-05T20:17:52.864Z,98721.94
2022-11-05T20:20:21.621Z,98727.09
2022-11-05T20:22:53.241Z,98723.84
2022-11-05T20:25:21.686Z,98732.78
2022-11-05T20:27:50.398Z,98730.41
2022-11-05T20:30:19.863Z,98727.94
2022-11-05T20:32:48.304Z,98730.72
2022-11-05T20:35:16.628Z,98737.53
2022-11-05T20:37:48.517Z,98732.53
2022-11-05T20:40:22.745Z,98736.88
2022-11-05T20:42:51.246Z,98730.06
2022-11-05T20:45:19.672Z,98725.13
2022-11-05T20:47:48.155Z,98728.56
2022-11-05T20:50:16.712Z,98732.00
2022-11-05T20:52:45.152Z,98725.34
2022-11-05T20:55:13.594Z,98725.56
2022-11-05T20:57:43.148Z,98729.09
2022-11-05T21:00:13.646Z,98739.50
2022-11-05T21:02:42.190Z,98741.41
2022-11-05T21:05:10.794Z,98731.19
2022-11-05T21:07:39.181Z,98727.78
2022-11-05T21:10:08.142Z,98720.09
2022-11-05T21:12:36.502Z,98722.72
2022-11-05T21:15:07.825Z,98724.38
2022-11-05T21:17:37.581Z,98723.47
2022-11-05T21:20:07.055Z,98717.31
2022-11-05T21:22:35.463Z,98718.97
2022-11-05T21:25:04.075Z,98720.56
2022-11-05T21:27:32.388Z,98726.53
2022-11-05T21:30:00.608Z,98726.53
2022-11-05T21:32:30.590Z,98721.41
2022-11-05T21:34:59.170Z,98722.28
2022-11-05T21:37:27.969Z,98725.72
2022-11-05T21:39:56.589Z,98728.34
2022-11-05T21:42:25.293Z,98724.19
2022-11-05T21:44:59.106Z,98721.75
2022-11-05T21:47:30.553Z,98724.38
2022-11-05T21:49:58.843Z,98725.34
2022-11-05T21:52:45.053Z,98721.13
2022-11-05T21:55:31.513Z,98726.34
2022-11-05T21:58:24.699Z,98721.31
2022-11-05T22:00:52.920Z,98718.81
2022-11-05T22:03:22.512Z,98725.66
2022-11-05T22:05:51.017Z,98715.41
2022-11-05T22:08:19.298Z,98716.25
2022-11-05T22:10:47.658Z,98717.16
2022-11-05T22:13:16.166Z,98719.78
2022-11-05T22:15:44.387Z,98713.06
2022-11-05T22:18:12.841Z,98719.88
2022-11-05T22:20:42.637Z,98715.59
2022-11-05T22:23:11.488Z,98718.25
2022-11-05T22:25:40.069Z,98721.78
2022-11-05T22:28:08.445Z,98717.56
2022-11-05T22:30:36.969Z,98710.88
2022-11-05T22:33:05.407Z,98717.81
2022-11-05T22:35:33.968Z,98716.91
2022-11-05T22:38:03.759Z,98714.28
2022-11-05T22:40:31.996Z,98715.91
2022-11-05T22:43:00.230Z,98708.25
2022-11-05T22:45:28.607Z,98707.38
2022-11-05T22:47:56.821Z,98703.16
2022-11-05T22:50:25.102Z,98705.75
2022-11-05T22:52:53.398Z,98710.94
2022-11-05T22:55:23.136Z,98705.97
2022-11-05T22:57:51.482Z,98701.78
2022-11-05T23:00:20.380Z,98702.66
2022-11-05T23:02:48.867Z,98699.22
2022-11-05T23:05:17.324Z,98699.22
2022-11-05T23:08:02.911Z,98694.06
2022-11-05T23:10:52.575Z,98694.97
2022-11-05T23:13:20.803Z,98697.53
2022-11-05T23:16:07.094Z,98695.06
2022-11-05T23:18:53.130Z,98697.66
2022-11-05T23:21:38.911Z,98695.22
2022-11-05T23:24:07.899Z,98692.72
2022-11-05T23:26:52.454Z,98684.19
2022-11-05T23:29:23.203Z,98691.09
2022-11-05T23:32:09.539Z,98685.16
2022-11-05T23:34:37.917Z,98690.28
2022-11-05T23:37:24.193Z,98686.94
2022-11-05T23:39:52.703Z,98683.50
2022-11-05T23:42:42.362Z,98678.38
2022-11-05T23:45:29.312Z,98678.50
2022-11-05T23:48:15.512Z,98668.19
2022-11-05T23:50:47.338Z,98663.97
2022-11-05T23:53:15.869Z,98662.44
2022-11-05T23:55:44.601Z,98671.84
2022-11-05T23:58:15.029Z,98670.25
